createdAt,value
2019-03-03T00:00:46.017Z,31.17
2019-03-03T00:03:14.707Z,29.90
2019-03-03T00:05:43.493Z,37.63
2019-03-03T00:08:12.310Z,29.43
2019-03-03T00:10:41.473Z,27.50
2019-03-03T00:13:10.419Z,35.50
2019-03-03T00:15:39.319Z,29.17
2019-03-03T00:18:08.354Z,27.95
2019-03-03T00:20:37.424Z,32.65
2019-03-03T00:23:07.012Z,30.55
2019-03-03T00:25:35.923Z,29.33
2019-03-03T00:28:06.484Z,40.16
2019-03-03T00:30:35.659Z,32.35
2019-03-03T00:33:05.233Z,33.15
2019-03-03T00:35:33.876Z,30.50
2019-03-03T00:38:07.372Z,27.62
2019-03-03T00:40:37.786Z,26.93
2019-03-03T00:43:26.425Z,31.90
2019-03-03T00:46:12.280Z,30.08
2019-03-03T00:48:48.905Z,29.30
2019-03-03T00:51:19.343Z,35.73
2019-03-03T00:54:07.313Z,34.18
2019-03-03T00:56:43.618Z,33.78
2019-03-03T00:59:14.242Z,32.88
2019-03-03T01:02:00.492Z,32.33
2019-03-03T01:04:33.661Z,33.87
2019-03-03T01:07:10.037Z,30.65
2019-03-03T01:09:46.396Z,26.42
2019-03-03T01:14:50.783Z,28.30
2019-03-03T01:17:21.048Z,30.50
2019-03-03T01:20:09.168Z,30.92
2019-03-03T01:22:42.642Z,32.08
2019-03-03T01:25:11.562Z,29.20
2019-03-03T01:27:40.099Z,27.82
2019-03-03T01:30:10.395Z,33.20
2019-03-03T01:32:39.296Z,27.37
2019-03-03T01:35:09.552Z,30.65
2019-03-03T01:37:38.219Z,24.60
2019-03-03T01:40:08.678Z,30.23
2019-03-03T01:42:37.300Z,28.60
2019-03-03T01:45:13.455Z,30.35
2019-03-03T01:47:42.112Z,28.63
2019-03-03T01:50:11.470Z,22.67
2019-03-03T01:52:40.929Z,30.50
2019-03-03T01:55:10.492Z,26.57
2019-03-03T01:57:39.506Z,19.77
2019-03-03T02:00:15.996Z,30.25
2019-03-03T02:05:13.690Z,29.87
2019-03-03T02:07:42.574Z,29.02
2019-03-03T02:10:11.416Z,26.07
2019-03-03T02:12:40.445Z,22.20
2019-03-03T02:15:09.568Z,30.92
2019-03-03T02:17:38.530Z,26.90
2019-03-03T02:20:09.019Z,25.07
2019-03-03T02:22:37.595Z,30.25
2019-03-03T02:25:07.793Z,28.02
2019-03-03T02:27:36.475Z,30.95
2019-03-03T02:30:13.805Z,40.48
2019-03-03T02:32:42.491Z,37.03
2019-03-03T02:35:11.444Z,36.05
2019-03-03T02:37:40.034Z,23.42
2019-03-03T02:40:16.063Z,28.77
2019-03-03T02:42:44.969Z,29.35
2019-03-03T02:45:14.641Z,28.40
2019-03-03T02:47:44.001Z,31.05
2019-03-03T02:50:13.801Z,30.40
2019-03-03T02:52:43.048Z,32.73
2019-03-03T02:55:13.115Z,24.90
2019-03-03T02:57:41.776Z,32.25
2019-03-03T03:00:21.987Z,30.37
2019-03-03T03:02:52.495Z,32.33
2019-03-03T03:05:42.705Z,28.62
2019-03-03T03:08:13.172Z,46.37
2019-03-03T03:11:02.255Z,38.53
2019-03-03T03:13:48.980Z,33.77
2019-03-03T03:16:25.186Z,28.23
2019-03-03T03:19:04.422Z,37.17
2019-03-03T03:21:49.890Z,32.60
2019-03-03T03:24:23.328Z,35.90
2019-03-03T03:26:56.612Z,40.93
2019-03-03T03:29:27.009Z,30.30
2019-03-03T03:31:57.500Z,29.83
2019-03-03T03:34:33.553Z,36.23
2019-03-03T03:37:10.360Z,30.90
2019-03-03T03:39:40.529Z,30.15
2019-03-03T03:42:17.247Z,26.30
2019-03-03T03:45:03.955Z,32.23
2019-03-03T03:47:35.716Z,28.27
2019-03-03T03:50:08.321Z,28.80
2019-03-03T03:52:46.431Z,25.90
2019-03-03T03:55:16.861Z,27.93
2019-03-03T03:57:50.133Z,30.35
2019-03-03T04:00:32.679Z,27.35
2019-03-03T04:03:03.301Z,31.33
2019-03-03T04:05:39.860Z,31.57
2019-03-03T04:08:13.021Z,25.60
2019-03-03T04:10:59.963Z,34.38
2019-03-03T04:13:45.414Z,21.50
2019-03-03T04:16:18.539Z,30.87
2019-03-03T04:18:49.537Z,26.50
2019-03-03T04:21:28.742Z,27.50
2019-03-03T04:24:08.293Z,34.05
2019-03-03T04:26:39.132Z,24.90
2019-03-03T04:29:09.602Z,27.93
2019-03-03T04:31:56.244Z,29.65
2019-03-03T04:34:26.708Z,30.70
2019-03-03T04:36:59.807Z,29.10
2019-03-03T04:39:30.290Z,31.00
2019-03-03T04:42:09.565Z,31.50
2019-03-03T04:44:42.317Z,28.45
2019-03-03T04:47:14.908Z,27.50
2019-03-03T04:49:51.091Z,36.42
2019-03-03T04:52:21.564Z,29.47
2019-03-03T04:55:08.410Z,27.73
2019-03-03T04:57:57.198Z,36.60
2019-03-03T05:00:41.113Z,26.85
2019-03-03T05:03:23.703Z,29.52
2019-03-03T05:05:58.465Z,35.35
2019-03-03T05:08:29.172Z,24.67
2019-03-03T05:11:14.210Z,31.07
2019-03-03T05:13:50.780Z,24.55
2019-03-03T05:16:21.255Z,22.90
2019-03-03T05:18:51.874Z,27.87
2019-03-03T05:21:20.733Z,33.53
2019-03-03T05:23:49.887Z,25.32
2019-03-03T05:26:18.497Z,24.70
2019-03-03T05:28:47.041Z,27.70
2019-03-03T05:31:16.088Z,28.62
2019-03-03T05:33:44.988Z,21.80
2019-03-03T05:36:13.660Z,22.80
2019-03-03T05:38:42.476Z,25.27
2019-03-03T05:41:11.224Z,23.17
2019-03-03T05:43:40.072Z,19.40
2019-03-03T05:46:08.961Z,21.27
2019-03-03T05:48:37.770Z,15.27
2019-03-03T05:51:06.745Z,17.92
2019-03-03T05:53:35.615Z,16.03
2019-03-03T05:56:06.174Z,15.50
2019-03-03T05:58:34.768Z,16.42
2019-03-03T06:01:03.351Z,14.90
2019-03-03T06:03:31.911Z,11.15
2019-03-03T06:06:00.479Z,14.80
2019-03-03T06:08:29.116Z,16.20
2019-03-03T06:10:57.991Z,11.87
2019-03-03T06:13:27.059Z,20.30
2019-03-03T06:15:55.926Z,12.33
2019-03-03T06:18:24.723Z,18.67
2019-03-03T06:20:54.129Z,12.98
2019-03-03T06:23:23.034Z,15.23
2019-03-03T06:25:51.896Z,13.08
2019-03-03T06:28:20.676Z,8.50
2019-03-03T06:30:50.115Z,16.47
2019-03-03T06:33:19.186Z,13.48
2019-03-03T06:35:48.607Z,12.40
2019-03-03T06:38:21.487Z,15.00
2019-03-03T06:40:52.229Z,13.55
2019-03-03T06:43:21.101Z,19.30
2019-03-03T06:45:51.715Z,15.10
2019-03-03T06:48:20.531Z,15.10
2019-03-03T06:50:54.961Z,21.10
2019-03-03T06:53:23.819Z,14.97
2019-03-03T06:55:53.779Z,18.87
2019-03-03T06:58:22.705Z,14.70
2019-03-03T07:00:54.878Z,21.65
2019-03-03T07:03:28.362Z,20.70
2019-03-03T07:05:57.040Z,18.62
2019-03-03T07:08:27.137Z,21.05
2019-03-03T07:10:55.972Z,25.70
2019-03-03T07:13:24.611Z,19.13
2019-03-03T07:15:53.565Z,21.83
2019-03-03T07:18:22.374Z,18.15
2019-03-03T07:20:51.345Z,19.12
2019-03-03T07:23:22.958Z,26.90
2019-03-03T07:25:51.604Z,27.40
2019-03-03T07:28:20.350Z,25.77
2019-03-03T07:30:49.511Z,27.80
2019-03-03T07:33:19.641Z,22.30
2019-03-03T07:35:50.568Z,25.53
2019-03-03T07:38:19.312Z,25.23
2019-03-03T07:40:49.155Z,25.05
2019-03-03T07:43:19.385Z,24.63
2019-03-03T07:45:50.646Z,20.20
2019-03-03T07:48:18.354Z,30.73
2019-03-03T07:50:47.385Z,30.32
2019-03-03T07:53:16.361Z,23.57
2019-03-03T07:55:45.835Z,36.70
2019-03-03T07:58:14.427Z,31.23
2019-03-03T08:00:43.009Z,20.50
2019-03-03T08:03:11.513Z,21.73
2019-03-03T08:05:40.568Z,27.93
2019-03-03T08:08:09.456Z,24.33
2019-03-03T08:10:38.256Z,22.17
2019-03-03T08:13:09.526Z,25.23
2019-03-03T08:15:37.581Z,28.37
2019-03-03T08:18:06.452Z,25.03
2019-03-03T08:20:35.755Z,27.05
2019-03-03T08:23:06.513Z,23.76
2019-03-03T08:25:36.148Z,22.60
2019-03-03T08:28:09.983Z,28.20
2019-03-03T08:30:41.338Z,28.52
2019-03-03T08:33:10.389Z,22.93
2019-03-03T08:35:39.695Z,28.53
2019-03-03T08:38:17.277Z,22.43
2019-03-03T08:40:46.070Z,26.90
2019-03-03T08:43:22.084Z,23.87
2019-03-03T08:48:29.525Z,22.07
2019-03-03T08:51:01.746Z,27.05
2019-03-03T08:53:32.557Z,22.93
2019-03-03T08:56:03.190Z,20.20
2019-03-03T08:58:34.189Z,28.35
2019-03-03T09:01:20.746Z,26.33
2019-03-03T09:03:50.840Z,23.67
2019-03-03T09:06:20.895Z,37.07
2019-03-03T09:08:53.980Z,22.23
2019-03-03T09:11:40.612Z,25.50
2019-03-03T09:14:24.265Z,30.07
2019-03-03T09:16:54.711Z,30.68
2019-03-03T09:19:34.882Z,31.73
2019-03-03T09:22:17.178Z,29.70
2019-03-03T09:25:02.625Z,24.90
2019-03-03T09:27:33.274Z,27.17
2019-03-03T09:30:03.913Z,26.62
2019-03-03T09:32:47.488Z,25.90
2019-03-03T09:35:24.142Z,25.17
2019-03-03T09:40:30.207Z,27.07
2019-03-03T09:43:10.082Z,25.50
2019-03-03T09:45:55.530Z,26.70
2019-03-03T09:48:34.740Z,26.33
2019-03-03T09:51:05.856Z,27.07
2019-03-03T09:53:42.191Z,23.35
2019-03-03T09:56:13.357Z,28.93
2019-03-03T09:58:49.646Z,21.17
2019-03-03T10:03:57.886Z,25.55
2019-03-03T10:06:34.031Z,23.15
2019-03-03T10:09:21.596Z,29.10
2019-03-03T10:11:53.442Z,29.18
2019-03-03T10:14:23.553Z,30.77
2019-03-03T10:17:00.064Z,27.65
2019-03-03T10:19:30.490Z,31.15
2019-03-03T10:22:17.329Z,20.48
2019-03-03T10:24:53.703Z,25.45
2019-03-03T10:29:59.208Z,22.10
2019-03-03T10:35:16.839Z,28.52
2019-03-03T10:37:56.153Z,25.90
2019-03-03T10:40:41.875Z,25.80
2019-03-03T10:43:30.158Z,19.63
2019-03-03T10:46:16.540Z,23.50
2019-03-03T10:48:52.389Z,24.27
2019-03-03T10:51:39.402Z,28.13
2019-03-03T10:54:09.821Z,21.87
2019-03-03T10:56:56.560Z,25.00
2019-03-03T10:59:28.101Z,20.17
2019-03-03T11:02:04.442Z,27.33
2019-03-03T11:04:40.828Z,22.48
2019-03-03T11:09:43.175Z,22.52
2019-03-03T11:12:17.143Z,23.37
2019-03-03T11:14:48.032Z,14.43
2019-03-03T11:17:18.727Z,22.20
2019-03-03T11:19:55.323Z,17.87
2019-03-03T11:22:43.209Z,22.30
2019-03-03T11:25:16.523Z,26.83
2019-03-03T11:27:46.862Z,18.98
2019-03-03T11:30:32.314Z,16.10
2019-03-03T11:33:02.739Z,17.65
2019-03-03T11:35:35.537Z,18.20
2019-03-03T11:38:07.334Z,20.50
2019-03-03T11:40:37.795Z,22.67
2019-03-03T11:43:14.581Z,19.95
2019-03-03T11:45:53.997Z,21.50
2019-03-03T11:48:40.850Z,18.43
2019-03-03T11:51:27.509Z,21.30
2019-03-03T11:53:57.889Z,17.92
2019-03-03T11:56:45.032Z,16.27
2019-03-03T11:59:21.117Z,14.90
2019-03-03T12:02:08.048Z,19.82
2019-03-03T12:04:53.513Z,22.20
2019-03-03T12:07:34.777Z,20.63
2019-03-03T12:10:14.647Z,16.20
2019-03-03T12:12:44.757Z,20.90
2019-03-03T12:15:18.049Z,16.97
2019-03-03T12:17:51.234Z,21.97
2019-03-03T12:20:21.778Z,18.80
2019-03-03T12:23:08.673Z,15.15
2019-03-03T12:25:51.587Z,20.32
2019-03-03T12:28:24.785Z,22.60
2019-03-03T12:30:58.896Z,20.97
2019-03-03T12:33:29.011Z,18.62
2019-03-03T12:36:08.355Z,22.87
2019-03-03T12:38:47.427Z,20.92
2019-03-03T12:41:23.332Z,17.83
2019-03-03T12:44:02.559Z,21.60
2019-03-03T12:46:33.078Z,25.08
2019-03-03T12:49:13.051Z,20.82
2019-03-03T12:52:01.077Z,21.35
2019-03-03T12:54:49.534Z,20.35
2019-03-03T12:57:34.944Z,26.33
2019-03-03T13:00:11.426Z,20.50
2019-03-03T13:02:57.263Z,23.77
2019-03-03T13:05:36.804Z,20.07
2019-03-03T13:08:07.829Z,19.42
2019-03-03T13:10:42.801Z,18.32
2019-03-03T13:13:23.852Z,19.57
2019-03-03T13:15:56.904Z,24.92
2019-03-03T13:18:40.150Z,18.80
2019-03-03T13:21:13.227Z,25.70
2019-03-03T13:23:43.347Z,22.58
2019-03-03T13:26:16.441Z,20.33
2019-03-03T13:28:46.853Z,17.67
2019-03-03T13:31:19.866Z,19.07
2019-03-03T13:33:53.145Z,25.27
2019-03-03T13:36:23.571Z,19.30
2019-03-03T13:39:11.700Z,16.45
2019-03-03T13:41:58.942Z,14.03
2019-03-03T13:44:28.120Z,15.32
2019-03-03T13:46:57.214Z,19.75
2019-03-03T13:49:26.417Z,24.50
2019-03-03T13:51:55.016Z,20.40
2019-03-03T13:54:23.893Z,12.00
2019-03-03T13:56:53.505Z,11.13
2019-03-03T13:59:22.498Z,14.00
2019-03-03T14:01:52.703Z,9.18
2019-03-03T14:04:22.237Z,10.83
2019-03-03T14:06:52.616Z,12.50
2019-03-03T14:09:21.211Z,16.43
2019-03-03T14:11:53.004Z,9.77
2019-03-03T14:14:21.874Z,14.87
2019-03-03T14:16:56.128Z,13.20
2019-03-03T14:19:25.252Z,13.05
2019-03-03T14:21:54.431Z,12.40
2019-03-03T14:24:22.912Z,41.63
2019-03-03T14:26:51.440Z,12.63
2019-03-03T14:29:20.038Z,12.07
2019-03-03T14:31:51.246Z,11.20
2019-03-03T14:34:22.651Z,14.80
2019-03-03T14:36:51.836Z,13.83
2019-03-03T14:39:20.640Z,11.47
2019-03-03T14:41:51.114Z,10.43
2019-03-03T14:44:24.059Z,13.80
2019-03-03T14:46:55.436Z,7.77
2019-03-03T14:49:24.183Z,7.97
2019-03-03T14:51:53.056Z,8.20
2019-03-03T14:54:21.800Z,9.17
2019-03-03T14:56:52.951Z,10.82
2019-03-03T14:59:21.527Z,9.47
2019-03-03T15:01:51.666Z,8.45
2019-03-03T15:04:20.554Z,6.77
2019-03-03T15:06:49.634Z,9.20
2019-03-03T15:09:20.271Z,8.60
2019-03-03T15:11:49.195Z,7.40
2019-03-03T15:14:18.174Z,6.07
2019-03-03T15:16:46.820Z,11.22
2019-03-03T15:19:16.687Z,6.23
2019-03-03T15:21:45.964Z,7.28
2019-03-03T15:24:14.824Z,7.97
2019-03-03T15:26:43.320Z,8.43
2019-03-03T15:29:11.999Z,5.57
2019-03-03T15:31:40.517Z,7.03
2019-03-03T15:34:09.845Z,7.10
2019-03-03T15:36:38.647Z,9.90
2019-03-03T15:39:08.055Z,8.75
2019-03-03T15:41:37.674Z,6.60
2019-03-03T15:44:07.512Z,8.58
2019-03-03T15:46:36.352Z,12.17
2019-03-03T15:49:05.860Z,6.03
2019-03-03T15:51:35.179Z,8.83
2019-03-03T15:54:03.940Z,8.08
2019-03-03T15:56:33.982Z,12.60
2019-03-03T15:59:03.156Z,9.37
2019-03-03T16:01:32.347Z,10.25
2019-03-03T16:04:01.055Z,13.30
2019-03-03T16:06:30.047Z,11.70
2019-03-03T16:08:58.930Z,9.77
2019-03-03T16:11:28.791Z,6.53
2019-03-03T16:13:59.758Z,7.87
2019-03-03T16:16:30.312Z,5.10
2019-03-03T16:18:59.091Z,10.58
2019-03-03T16:21:28.615Z,11.43
2019-03-03T16:24:00.255Z,8.43
2019-03-03T16:26:29.045Z,4.33
2019-03-03T16:28:58.016Z,6.00
2019-03-03T16:31:26.830Z,7.40
2019-03-03T16:33:56.469Z,8.13
2019-03-03T16:36:25.659Z,12.10
2019-03-03T16:38:55.641Z,7.27
2019-03-03T16:41:25.154Z,12.17
2019-03-03T16:43:54.119Z,9.67
2019-03-03T16:46:23.165Z,6.12
2019-03-03T16:48:52.102Z,6.90
2019-03-03T16:51:22.193Z,12.20
2019-03-03T16:53:52.980Z,9.38
2019-03-03T16:56:22.167Z,10.90
2019-03-03T16:58:51.142Z,10.50
2019-03-03T17:01:20.160Z,10.70
2019-03-03T17:03:49.255Z,13.75
2019-03-03T17:06:17.937Z,11.43
2019-03-03T17:08:46.595Z,12.18
2019-03-03T17:11:15.286Z,20.23
2019-03-03T17:13:44.580Z,23.67
2019-03-03T17:16:13.503Z,12.87
2019-03-03T17:18:42.155Z,18.37
2019-03-03T17:21:10.742Z,28.33
2019-03-03T17:23:39.317Z,12.10
2019-03-03T17:26:09.496Z,20.47
2019-03-03T17:28:38.524Z,21.90
2019-03-03T17:31:07.573Z,15.45
2019-03-03T17:33:36.650Z,21.60
2019-03-03T17:36:06.744Z,15.68
2019-03-03T17:38:35.844Z,20.67
2019-03-03T17:41:06.870Z,22.36
2019-03-03T17:43:36.157Z,19.75
2019-03-03T17:46:08.201Z,22.10
2019-03-03T17:48:37.336Z,19.92
2019-03-03T17:51:06.978Z,24.37
2019-03-03T17:53:35.925Z,22.30
2019-03-03T17:56:06.018Z,20.28
2019-03-03T17:58:34.740Z,18.77
2019-03-03T18:01:03.936Z,14.87
2019-03-03T18:03:32.813Z,21.43
2019-03-03T18:06:01.915Z,23.83
2019-03-03T18:08:30.911Z,23.92
2019-03-03T18:11:00.314Z,20.57
2019-03-03T18:13:29.119Z,18.62
2019-03-03T18:15:57.886Z,19.98
2019-03-03T18:18:26.776Z,16.30
2019-03-03T18:20:55.363Z,16.67
2019-03-03T18:23:24.246Z,17.73
2019-03-03T18:25:53.237Z,18.37
2019-03-03T18:28:22.660Z,20.07
2019-03-03T18:30:58.199Z,15.00
2019-03-03T18:33:29.111Z,9.67
2019-03-03T18:35:59.830Z,18.42
2019-03-03T18:38:31.728Z,10.50
2019-03-03T18:41:02.626Z,8.63
2019-03-03T18:43:31.822Z,13.22
2019-03-03T18:46:00.402Z,13.80
2019-03-03T18:48:29.315Z,14.28
2019-03-03T18:50:58.076Z,11.48
2019-03-03T18:53:27.066Z,11.27
2019-03-03T18:55:56.387Z,11.57
2019-03-03T18:58:25.690Z,11.05
2019-03-03T19:00:54.354Z,9.28
2019-03-03T19:03:23.921Z,11.57
2019-03-03T19:05:55.969Z,13.65
2019-03-03T19:08:24.330Z,11.67
2019-03-03T19:10:53.627Z,14.80
2019-03-03T19:13:22.388Z,12.00
2019-03-03T19:15:52.830Z,11.93
2019-03-03T19:18:22.124Z,14.20
2019-03-03T19:20:53.665Z,11.30
2019-03-03T19:23:23.080Z,9.50
2019-03-03T19:25:52.279Z,8.15
2019-03-03T19:28:21.611Z,11.20
2019-03-03T19:30:53.015Z,10.00
2019-03-03T19:33:26.556Z,11.03
2019-03-03T19:35:55.491Z,11.95
2019-03-03T19:38:26.152Z,9.28
2019-03-03T19:40:55.060Z,12.50
2019-03-03T19:43:24.005Z,5.43
2019-03-03T19:45:55.376Z,10.23
2019-03-03T19:48:26.824Z,6.70
2019-03-03T19:50:55.886Z,5.37
2019-03-03T19:53:24.520Z,6.43
2019-03-03T19:55:53.592Z,10.60
2019-03-03T19:58:23.198Z,5.15
2019-03-03T20:00:52.227Z,9.00
2019-03-03T20:03:20.874Z,5.63
2019-03-03T20:05:50.172Z,4.67
2019-03-03T20:08:18.935Z,6.20
2019-03-03T20:10:47.969Z,7.62
2019-03-03T20:13:18.454Z,7.60
2019-03-03T20:15:47.055Z,9.18
2019-03-03T20:18:16.566Z,6.17
2019-03-03T20:20:45.145Z,7.08
2019-03-03T20:23:15.453Z,6.13
2019-03-03T20:25:44.539Z,5.35
2019-03-03T20:28:13.135Z,8.90
2019-03-03T20:30:42.622Z,7.95
2019-03-03T20:33:11.725Z,7.75
2019-03-03T20:35:40.637Z,9.23
2019-03-03T20:38:09.505Z,7.00
2019-03-03T20:40:39.289Z,8.70
2019-03-03T20:43:09.037Z,8.87
2019-03-03T20:45:38.010Z,5.30
2019-03-03T20:48:06.590Z,8.10
2019-03-03T20:50:35.482Z,5.70
2019-03-03T20:53:06.316Z,5.62
2019-03-03T20:55:36.125Z,7.93
2019-03-03T20:58:06.650Z,6.02
2019-03-03T21:00:35.648Z,5.00
2019-03-03T21:03:08.666Z,8.70
2019-03-03T21:05:37.441Z,7.17
2019-03-03T21:08:06.625Z,8.26
2019-03-03T21:10:35.524Z,7.10
2019-03-03T21:13:06.083Z,8.12
2019-03-03T21:15:35.453Z,10.88
2019-03-03T21:18:06.596Z,10.76
2019-03-03T21:20:35.580Z,14.43
2019-03-03T21:23:04.375Z,8.15
2019-03-03T21:25:32.959Z,9.05
2019-03-03T21:28:01.947Z,10.93
2019-03-03T21:30:30.811Z,9.35
2019-03-03T21:33:00.137Z,8.93
2019-03-03T21:35:28.909Z,8.93
2019-03-03T21:37:59.020Z,6.73
2019-03-03T21:40:29.263Z,11.33
2019-03-03T21:42:58.459Z,12.93
2019-03-03T21:45:28.062Z,9.78
2019-03-03T21:47:57.978Z,8.38
2019-03-03T21:50:27.900Z,8.15
2019-03-03T21:52:56.559Z,14.85
2019-03-03T21:55:25.656Z,9.23
2019-03-03T21:57:54.906Z,9.50
2019-03-03T22:00:27.468Z,11.60
2019-03-03T22:02:56.529Z,9.15
2019-03-03T22:05:25.136Z,9.73
2019-03-03T22:07:54.001Z,10.50
2019-03-03T22:10:33.233Z,15.65
2019-03-03T22:13:03.150Z,12.07
2019-03-03T22:15:32.336Z,11.55
2019-03-03T22:18:01.339Z,7.12
2019-03-03T22:20:30.535Z,13.10
2019-03-03T22:23:01.476Z,10.60
2019-03-03T22:25:30.157Z,11.93
2019-03-03T22:27:59.146Z,10.60
2019-03-03T22:30:27.702Z,6.33
2019-03-03T22:32:56.545Z,10.93
2019-03-03T22:35:25.410Z,9.83
2019-03-03T22:37:54.267Z,16.50
2019-03-03T22:40:27.699Z,12.53
2019-03-03T22:42:58.341Z,11.35
2019-03-03T22:45:27.520Z,13.87
2019-03-03T22:47:56.507Z,10.65
2019-03-03T22:50:25.382Z,10.73
2019-03-03T22:52:55.004Z,10.32
2019-03-03T22:55:23.893Z,9.55
2019-03-03T22:57:52.946Z,9.07
2019-03-03T23:00:26.416Z,11.77
2019-03-03T23:02:56.806Z,8.70
2019-03-03T23:05:30.804Z,10.80
2019-03-03T23:08:02.587Z,10.15
2019-03-03T23:10:34.758Z,8.50
2019-03-03T23:13:07.620Z,5.70
2019-03-03T23:15:38.558Z,8.93
2019-03-03T23:18:08.977Z,11.08
2019-03-03T23:20:39.100Z,6.65
2019-03-03T23:23:12.395Z,7.60
2019-03-03T23:25:54.264Z,7.87
2019-03-03T23:28:23.178Z,8.05
2019-03-03T23:30:52.338Z,8.53
2019-03-03T23:33:20.935Z,7.00
2019-03-03T23:35:49.838Z,8.60
2019-03-03T23:38:18.408Z,10.43
2019-03-03T23:40:46.987Z,7.75
2019-03-03T23:43:15.573Z,7.67
2019-03-03T23:45:45.477Z,11.83
2019-03-03T23:48:14.165Z,7.67
2019-03-03T23:50:42.944Z,9.93
2019-03-03T23:53:11.532Z,12.23
2019-03-03T23:55:40.650Z,7.47
2019-03-03T23:58:09.239Z,15.50
